sensor_id;sensor_type;location;lat;lon;timestamp;P1;durP1;ratioP1;P2;durP2;ratioP2
76597;SDS011;65486;53.144;18.134;2022-11-25T00:01:56;65.20;;;17.80;;
76597;SDS011;65486;53.144;18.134;2022-11-25T00:04:23;59.30;;;16.50;;
76597;SDS011;65486;53.144;18.134;2022-11-25T00:06:50;56.50;;;17.30;;
76597;SDS011;65486;53.144;18.134;2022-11-25T00:09:16;62.40;;;17.90;;
76597;SDS011;65486;53.144;18.134;2022-11-25T00:11:43;50.90;;;16.10;;
76597;SDS011;65486;53.144;18.134;2022-11-25T00:14:11;78.00;;;18.80;;
76597;SDS011;65486;53.144;18.134;2022-11-25T00:16:40;68.30;;;18.30;;
76597;SDS011;65486;53.144;18.134;2022-11-25T00:19:08;57.90;;;17.30;;
76597;SDS011;65486;53.144;18.134;2022-11-25T00:21:36;58.10;;;16.30;;
76597;SDS011;65486;53.144;18.134;2022-11-25T00:24:05;50.10;;;13.60;;
76597;SDS011;65486;53.144;18.134;2022-11-25T00:26:35;49.70;;;16.10;;
76597;SDS011;65486;53.144;18.134;2022-11-25T00:29:04;53.10;;;15.40;;
76597;SDS011;65486;53.144;18.134;2022-11-25T00:31:35;73.20;;;19.00;;
76597;SDS011;65486;53.144;18.134;2022-11-25T00:34:05;63.70;;;17.10;;
76597;SDS011;65486;53.144;18.134;2022-11-25T00:36:38;59.60;;;16.80;;
76597;SDS011;65486;53.144;18.134;2022-11-25T00:39:06;55.80;;;16.00;;
76597;SDS011;65486;53.144;18.134;2022-11-25T00:41:40;65.00;;;17.60;;
76597;SDS011;65486;53.144;18.134;2022-11-25T00:44:28;60.30;;;17.90;;
76597;SDS011;65486;53.144;18.134;2022-11-25T00:47:17;74.20;;;20.10;;
76597;SDS011;65486;53.144;18.134;2022-11-25T00:49:49;71.80;;;17.70;;
76597;SDS011;65486;53.144;18.134;2022-11-25T00:52:19;55.10;;;14.90;;
76597;SDS011;65486;53.144;18.134;2022-11-25T00:54:48;50.70;;;14.20;;
76597;SDS011;65486;53.144;18.134;2022-11-25T00:57:17;46.70;;;14.40;;
76597;SDS011;65486;53.144;18.134;2022-11-25T00:59:45;57.80;;;15.40;;
76597;SDS011;65486;53.144;18.134;2022-11-25T01:02:13;64.90;;;17.10;;
76597;SDS011;65486;53.144;18.134;2022-11-25T01:04:41;53.90;;;15.80;;
76597;SDS011;65486;53.144;18.134;2022-11-25T01:07:09;46.20;;;14.90;;
76597;SDS011;65486;53.144;18.134;2022-11-25T01:09:37;52.00;;;13.70;;
76597;SDS011;65486;53.144;18.134;2022-11-25T01:12:04;53.10;;;15.90;;
76597;SDS011;65486;53.144;18.134;2022-11-25T01:14:32;53.00;;;15.20;;
76597;SDS011;65486;53.144;18.134;2022-11-25T01:16:59;63.80;;;17.60;;
76597;SDS011;65486;53.144;18.134;2022-11-25T01:19:25;51.20;;;16.10;;
76597;SDS011;65486;53.144;18.134;2022-11-25T01:21:52;48.00;;;14.90;;
76597;SDS011;65486;53.144;18.134;2022-11-25T01:24:20;46.80;;;13.40;;
76597;SDS011;65486;53.144;18.134;2022-11-25T01:26:47;48.70;;;13.60;;
76597;SDS011;65486;53.144;18.134;2022-11-25T01:29:15;49.80;;;14.00;;
76597;SDS011;65486;53.144;18.134;2022-11-25T01:31:44;57.10;;;15.60;;
76597;SDS011;65486;53.144;18.134;2022-11-25T01:34:14;61.40;;;16.90;;
76597;SDS011;65486;53.144;18.134;2022-11-25T01:36:46;61.20;;;16.50;;
76597;SDS011;65486;53.144;18.134;2022-11-25T01:39:14;52.30;;;15.50;;
76597;SDS011;65486;53.144;18.134;2022-11-25T01:41:44;56.60;;;14.90;;
76597;SDS011;65486;53.144;18.134;2022-11-25T01:44:16;48.70;;;15.10;;
76597;SDS011;65486;53.144;18.134;2022-11-25T01:49:33;53.70;;;14.70;;
76597;SDS011;65486;53.144;18.134;2022-11-25T01:52:09;68.00;;;17.40;;
76597;SDS011;65486;53.144;18.134;2022-11-25T01:54:43;60.20;;;15.60;;
76597;SDS011;65486;53.144;18.134;2022-11-25T01:57:53;45.90;;;14.80;;
76597;SDS011;65486;53.144;18.134;2022-11-25T02:00:24;50.70;;;14.00;;
76597;SDS011;65486;53.144;18.134;2022-11-25T02:02:51;43.90;;;13.10;;
76597;SDS011;65486;53.144;18.134;2022-11-25T02:05:26;50.30;;;14.90;;
76597;SDS011;65486;53.144;18.134;2022-11-25T02:08:01;60.90;;;15.80;;
76597;SDS011;65486;53.144;18.134;2022-11-25T02:10:31;49.30;;;14.60;;
76597;SDS011;65486;53.144;18.134;2022-11-25T02:13:03;50.80;;;14.50;;
76597;SDS011;65486;53.144;18.134;2022-11-25T02:15:32;47.50;;;14.20;;
76597;SDS011;65486;53.144;18.134;2022-11-25T02:18:04;47.60;;;14.30;;
76597;SDS011;65486;53.144;18.134;2022-11-25T02:20:32;42.00;;;13.20;;
76597;SDS011;65486;53.144;18.134;2022-11-25T02:23:05;47.60;;;14.40;;
76597;SDS011;65486;53.144;18.134;2022-11-25T02:25:45;53.50;;;15.60;;
76597;SDS011;65486;53.144;18.134;2022-11-25T02:28:24;49.30;;;15.30;;
76597;SDS011;65486;53.144;18.134;2022-11-25T02:30:55;45.20;;;13.40;;
76597;SDS011;65486;53.144;18.134;2022-11-25T02:33:25;45.20;;;13.20;;
76597;SDS011;65486;53.144;18.134;2022-11-25T02:35:59;43.50;;;14.20;;
76597;SDS011;65486;53.144;18.134;2022-11-25T02:38:44;39.70;;;13.10;;
76597;SDS011;65486;53.144;18.134;2022-11-25T02:41:46;36.60;;;11.00;;
76597;SDS011;65486;53.144;18.134;2022-11-25T02:44:19;56.00;;;15.10;;
76597;SDS011;65486;53.144;18.134;2022-11-25T02:46:47;42.30;;;12.60;;
76597;SDS011;65486;53.144;18.134;2022-11-25T02:49:14;38.70;;;13.20;;
76597;SDS011;65486;53.144;18.134;2022-11-25T02:51:42;35.60;;;13.00;;
76597;SDS011;65486;53.144;18.134;2022-11-25T02:54:14;42.20;;;12.40;;
76597;SDS011;65486;53.144;18.134;2022-11-25T02:56:41;38.70;;;12.20;;
76597;SDS011;65486;53.144;18.134;2022-11-25T02:59:09;40.50;;;13.00;;
76597;SDS011;65486;53.144;18.134;2022-11-25T03:01:39;42.10;;;13.70;;
76597;SDS011;65486;53.144;18.134;2022-11-25T03:04:08;43.70;;;14.00;;
76597;SDS011;65486;53.144;18.134;2022-11-25T03:06:35;35.00;;;10.50;;
76597;SDS011;65486;53.144;18.134;2022-11-25T03:09:04;38.00;;;12.30;;
76597;SDS011;65486;53.144;18.134;2022-11-25T03:11:34;38.60;;;11.70;;
76597;SDS011;65486;53.144;18.134;2022-11-25T03:14:20;41.40;;;13.00;;
76597;SDS011;65486;53.144;18.134;2022-11-25T03:16:49;41.50;;;13.50;;
76597;SDS011;65486;53.144;18.134;2022-11-25T03:19:18;43.50;;;13.90;;
76597;SDS011;65486;53.144;18.134;2022-11-25T03:21:45;42.00;;;13.50;;
76597;SDS011;65486;53.144;18.134;2022-11-25T03:24:13;42.50;;;13.40;;
76597;SDS011;65486;53.144;18.134;2022-11-25T03:26:39;37.70;;;12.70;;
76597;SDS011;65486;53.144;18.134;2022-11-25T03:29:07;38.10;;;12.80;;
76597;SDS011;65486;53.144;18.134;2022-11-25T03:31:34;42.90;;;12.90;;
76597;SDS011;65486;53.144;18.134;2022-11-25T03:34:02;52.50;;;15.70;;
76597;SDS011;65486;53.144;18.134;2022-11-25T03:36:30;44.20;;;13.20;;
76597;SDS011;65486;53.144;18.134;2022-11-25T03:39:00;43.40;;;13.50;;
76597;SDS011;65486;53.144;18.134;2022-11-25T03:41:28;43.70;;;13.50;;
76597;SDS011;65486;53.144;18.134;2022-11-25T03:43:56;42.90;;;13.30;;
76597;SDS011;65486;53.144;18.134;2022-11-25T03:46:23;45.40;;;14.50;;
76597;SDS011;65486;53.144;18.134;2022-11-25T03:48:51;46.60;;;14.80;;
76597;SDS011;65486;53.144;18.134;2022-11-25T03:51:19;52.90;;;15.60;;
76597;SDS011;65486;53.144;18.134;2022-11-25T03:53:46;53.10;;;15.60;;
76597;SDS011;65486;53.144;18.134;2022-11-25T03:56:13;39.80;;;13.30;;
76597;SDS011;65486;53.144;18.134;2022-11-25T03:58:40;38.30;;;12.70;;
76597;SDS011;65486;53.144;18.134;2022-11-25T04:01:09;40.80;;;13.10;;
76597;SDS011;65486;53.144;18.134;2022-11-25T04:03:36;38.90;;;13.20;;
76597;SDS011;65486;53.144;18.134;2022-11-25T04:06:04;38.60;;;12.70;;
76597;SDS011;65486;53.144;18.134;2022-11-25T04:08:31;51.30;;;14.80;;
76597;SDS011;65486;53.144;18.134;2022-11-25T04:10:58;44.90;;;13.30;;
76597;SDS011;65486;53.144;18.134;2022-11-25T04:13:29;43.50;;;14.70;;
76597;SDS011;65486;53.144;18.134;2022-11-25T04:15:56;39.80;;;13.50;;
76597;SDS011;65486;53.144;18.134;2022-11-25T04:18:25;42.10;;;11.70;;
76597;SDS011;65486;53.144;18.134;2022-11-25T04:20:54;41.90;;;13.00;;
76597;SDS011;65486;53.144;18.134;2022-11-25T04:23:21;40.20;;;13.00;;
76597;SDS011;65486;53.144;18.134;2022-11-25T04:25:59;47.60;;;14.80;;
76597;SDS011;65486;53.144;18.134;2022-11-25T04:28:31;46.40;;;13.90;;
76597;SDS011;65486;53.144;18.134;2022-11-25T04:30:58;40.90;;;14.50;;
76597;SDS011;65486;53.144;18.134;2022-11-25T04:33:26;38.10;;;13.20;;
76597;SDS011;65486;53.144;18.134;2022-11-25T04:35:54;45.10;;;13.80;;
76597;SDS011;65486;53.144;18.134;2022-11-25T04:38:22;42.70;;;12.80;;
76597;SDS011;65486;53.144;18.134;2022-11-25T04:40:50;35.50;;;12.60;;
76597;SDS011;65486;53.144;18.134;2022-11-25T04:43:20;38.10;;;12.70;;
76597;SDS011;65486;53.144;18.134;2022-11-25T04:45:50;52.10;;;14.60;;
76597;SDS011;65486;53.144;18.134;2022-11-25T04:48:19;44.00;;;14.20;;
76597;SDS011;65486;53.144;18.134;2022-11-25T04:50:49;47.30;;;13.80;;
76597;SDS011;65486;53.144;18.134;2022-11-25T04:53:17;39.50;;;12.80;;
76597;SDS011;65486;53.144;18.134;2022-11-25T04:55:45;46.20;;;14.10;;
76597;SDS011;65486;53.144;18.134;2022-11-25T04:58:14;42.70;;;13.40;;
76597;SDS011;65486;53.144;18.134;2022-11-25T05:01:02;50.00;;;14.80;;
76597;SDS011;65486;53.144;18.134;2022-11-25T05:03:29;51.30;;;14.90;;
76597;SDS011;65486;53.144;18.134;2022-11-25T05:05:57;43.00;;;12.80;;
76597;SDS011;65486;53.144;18.134;2022-11-25T05:08:24;33.20;;;11.70;;
76597;SDS011;65486;53.144;18.134;2022-11-25T05:10:51;41.80;;;13.70;;
76597;SDS011;65486;53.144;18.134;2022-11-25T05:13:17;41.00;;;12.10;;
76597;SDS011;65486;53.144;18.134;2022-11-25T05:15:44;40.20;;;12.40;;
76597;SDS011;65486;53.144;18.134;2022-11-25T05:18:12;44.00;;;13.90;;
76597;SDS011;65486;53.144;18.134;2022-11-25T05:20:44;41.30;;;13.50;;
76597;SDS011;65486;53.144;18.134;2022-11-25T05:23:11;40.90;;;12.80;;
76597;SDS011;65486;53.144;18.134;2022-11-25T05:25:41;33.40;;;10.90;;
76597;SDS011;65486;53.144;18.134;2022-11-25T05:28:25;47.60;;;15.30;;
76597;SDS011;65486;53.144;18.134;2022-11-25T05:30:53;38.90;;;13.10;;
76597;SDS011;65486;53.144;18.134;2022-11-25T05:33:20;20.40;;;7.60;;
76597;SDS011;65486;53.144;18.134;2022-11-25T05:35:54;68.00;;;18.10;;
76597;SDS011;65486;53.144;18.134;2022-11-25T05:38:29;57.90;;;16.60;;
76597;SDS011;65486;53.144;18.134;2022-11-25T05:40:59;47.00;;;13.60;;
76597;SDS011;65486;53.144;18.134;2022-11-25T05:43:29;47.90;;;15.00;;
76597;SDS011;65486;53.144;18.134;2022-11-25T05:46:05;38.80;;;13.20;;
76597;SDS011;65486;53.144;18.134;2022-11-25T05:48:33;49.90;;;14.50;;
76597;SDS011;65486;53.144;18.134;2022-11-25T05:51:02;38.10;;;11.30;;
76597;SDS011;65486;53.144;18.134;2022-11-25T05:53:30;73.90;;;17.90;;
76597;SDS011;65486;53.144;18.134;2022-11-25T05:55:59;67.00;;;17.70;;
76597;SDS011;65486;53.144;18.134;2022-11-25T05:58:53;59.50;;;16.60;;
76597;SDS011;65486;53.144;18.134;2022-11-25T06:01:21;42.50;;;12.30;;
76597;SDS011;65486;53.144;18.134;2022-11-25T06:03:50;58.20;;;17.30;;
76597;SDS011;65486;53.144;18.134;2022-11-25T06:06:18;55.80;;;16.30;;
76597;SDS011;65486;53.144;18.134;2022-11-25T06:08:48;56.40;;;17.40;;
76597;SDS011;65486;53.144;18.134;2022-11-25T06:11:17;60.80;;;17.30;;
76597;SDS011;65486;53.144;18.134;2022-11-25T06:13:44;68.30;;;19.10;;
76597;SDS011;65486;53.144;18.134;2022-11-25T06:16:15;56.10;;;16.60;;
76597;SDS011;65486;53.144;18.134;2022-11-25T06:18:44;53.40;;;17.20;;
76597;SDS011;65486;53.144;18.134;2022-11-25T06:21:13;52.40;;;15.90;;
76597;SDS011;65486;53.144;18.134;2022-11-25T06:23:41;38.70;;;12.00;;
76597;SDS011;65486;53.144;18.134;2022-11-25T06:26:13;54.00;;;15.60;;
76597;SDS011;65486;53.144;18.134;2022-11-25T06:28:42;54.00;;;16.30;;
76597;SDS011;65486;53.144;18.134;2022-11-25T06:31:17;77.20;;;18.30;;
76597;SDS011;65486;53.144;18.134;2022-11-25T06:34:08;52.50;;;16.20;;
76597;SDS011;65486;53.144;18.134;2022-11-25T06:36:43;53.80;;;17.40;;
76597;SDS011;65486;53.144;18.134;2022-11-25T06:39:10;55.20;;;17.60;;
76597;SDS011;65486;53.144;18.134;2022-11-25T06:41:36;43.80;;;14.40;;
76597;SDS011;65486;53.144;18.134;2022-11-25T06:44:09;57.10;;;18.30;;
76597;SDS011;65486;53.144;18.134;2022-11-25T06:46:37;65.90;;;21.10;;
76597;SDS011;65486;53.144;18.134;2022-11-25T06:49:05;66.60;;;19.10;;
76597;SDS011;65486;53.144;18.134;2022-11-25T06:51:34;51.90;;;17.30;;
76597;SDS011;65486;53.144;18.134;2022-11-25T06:54:01;52.80;;;17.50;;
76597;SDS011;65486;53.144;18.134;2022-11-25T06:56:28;49.60;;;15.50;;
76597;SDS011;65486;53.144;18.134;2022-11-25T06:58:55;30.70;;;10.10;;
76597;SDS011;65486;53.144;18.134;2022-11-25T07:01:23;45.20;;;14.10;;
76597;SDS011;65486;53.144;18.134;2022-11-25T07:03:53;61.90;;;17.80;;
76597;SDS011;65486;53.144;18.134;2022-11-25T07:06:24;59.00;;;17.60;;
76597;SDS011;65486;53.144;18.134;2022-11-25T07:08:51;51.80;;;17.00;;
76597;SDS011;65486;53.144;18.134;2022-11-25T07:11:22;50.90;;;16.80;;
76597;SDS011;65486;53.144;18.134;2022-11-25T07:14:00;46.00;;;16.20;;
76597;SDS011;65486;53.144;18.134;2022-11-25T07:16:32;51.50;;;16.80;;
76597;SDS011;65486;53.144;18.134;2022-11-25T07:19:00;55.80;;;19.00;;
76597;SDS011;65486;53.144;18.134;2022-11-25T07:21:28;63.70;;;18.80;;
76597;SDS011;65486;53.144;18.134;2022-11-25T07:23:57;59.00;;;17.60;;
76597;SDS011;65486;53.144;18.134;2022-11-25T07:26:30;53.50;;;15.90;;
76597;SDS011;65486;53.144;18.134;2022-11-25T07:29:01;48.80;;;16.80;;
76597;SDS011;65486;53.144;18.134;2022-11-25T07:31:39;47.70;;;16.80;;
76597;SDS011;65486;53.144;18.134;2022-11-25T07:34:15;50.90;;;16.40;;
76597;SDS011;65486;53.144;18.134;2022-11-25T07:36:50;62.80;;;17.80;;
76597;SDS011;65486;53.144;18.134;2022-11-25T07:39:18;55.70;;;17.60;;
76597;SDS011;65486;53.144;18.134;2022-11-25T07:41:51;51.40;;;16.70;;
76597;SDS011;65486;53.144;18.134;2022-11-25T07:44:20;44.50;;;15.10;;
76597;SDS011;65486;53.144;18.134;2022-11-25T07:46:53;47.20;;;15.50;;
76597;SDS011;65486;53.144;18.134;2022-11-25T07:49:21;53.40;;;17.30;;
76597;SDS011;65486;53.144;18.134;2022-11-25T07:51:53;38.20;;;14.30;;
76597;SDS011;65486;53.144;18.134;2022-11-25T07:54:26;62.30;;;18.70;;
76597;SDS011;65486;53.144;18.134;2022-11-25T07:56:53;51.50;;;17.80;;
76597;SDS011;65486;53.144;18.134;2022-11-25T07:59:21;49.70;;;16.00;;
76597;SDS011;65486;53.144;18.134;2022-11-25T08:01:55;51.30;;;16.40;;
76597;SDS011;65486;53.144;18.134;2022-11-25T08:04:22;52.90;;;17.00;;
76597;SDS011;65486;53.144;18.134;2022-11-25T08:06:52;48.50;;;16.40;;
76597;SDS011;65486;53.144;18.134;2022-11-25T08:09:20;50.60;;;16.60;;
76597;SDS011;65486;53.144;18.134;2022-11-25T08:11:50;61.50;;;18.50;;
76597;SDS011;65486;53.144;18.134;2022-11-25T08:14:21;52.70;;;17.20;;
76597;SDS011;65486;53.144;18.134;2022-11-25T08:16:50;60.70;;;20.20;;
76597;SDS011;65486;53.144;18.134;2022-11-25T08:19:17;46.50;;;16.10;;
76597;SDS011;65486;53.144;18.134;2022-11-25T08:21:44;55.30;;;17.20;;
76597;SDS011;65486;53.144;18.134;2022-11-25T08:24:18;42.40;;;13.80;;
76597;SDS011;65486;53.144;18.134;2022-11-25T08:26:47;32.20;;;11.30;;
76597;SDS011;65486;53.144;18.134;2022-11-25T08:29:15;54.40;;;17.70;;
76597;SDS011;65486;53.144;18.134;2022-11-25T08:31:48;54.00;;;17.80;;
76597;SDS011;65486;53.144;18.134;2022-11-25T08:34:20;51.10;;;17.00;;
76597;SDS011;65486;53.144;18.134;2022-11-25T08:36:59;49.60;;;15.90;;
76597;SDS011;65486;53.144;18.134;2022-11-25T08:39:42;47.30;;;15.10;;
76597;SDS011;65486;53.144;18.134;2022-11-25T08:42:11;41.00;;;14.40;;
76597;SDS011;65486;53.144;18.134;2022-11-25T08:44:39;28.60;;;10.50;;
76597;SDS011;65486;53.144;18.134;2022-11-25T08:47:07;49.30;;;15.20;;
76597;SDS011;65486;53.144;18.134;2022-11-25T08:49:35;42.30;;;14.50;;
76597;SDS011;65486;53.144;18.134;2022-11-25T08:52:03;49.90;;;15.40;;
76597;SDS011;65486;53.144;18.134;2022-11-25T08:54:32;40.90;;;15.00;;
76597;SDS011;65486;53.144;18.134;2022-11-25T08:57:01;37.40;;;12.50;;
76597;SDS011;65486;53.144;18.134;2022-11-25T08:59:31;29.30;;;11.10;;
76597;SDS011;65486;53.144;18.134;2022-11-25T09:01:59;31.70;;;12.50;;
76597;SDS011;65486;53.144;18.134;2022-11-25T09:04:26;41.30;;;15.80;;
76597;SDS011;65486;53.144;18.134;2022-11-25T09:06:53;49.40;;;16.10;;
76597;SDS011;65486;53.144;18.134;2022-11-25T09:09:20;43.80;;;14.90;;
76597;SDS011;65486;53.144;18.134;2022-11-25T09:11:48;44.00;;;14.30;;
76597;SDS011;65486;53.144;18.134;2022-11-25T09:14:15;45.40;;;15.70;;
76597;SDS011;65486;53.144;18.134;2022-11-25T09:16:42;40.30;;;14.20;;
76597;SDS011;65486;53.144;18.134;2022-11-25T09:19:10;34.50;;;12.10;;
76597;SDS011;65486;53.144;18.134;2022-11-25T09:21:37;30.40;;;10.70;;
76597;SDS011;65486;53.144;18.134;2022-11-25T09:24:04;34.70;;;13.20;;
76597;SDS011;65486;53.144;18.134;2022-11-25T09:26:31;42.40;;;14.50;;
76597;SDS011;65486;53.144;18.134;2022-11-25T09:29:02;41.40;;;14.00;;
76597;SDS011;65486;53.144;18.134;2022-11-25T09:31:29;38.60;;;13.10;;
76597;SDS011;65486;53.144;18.134;2022-11-25T09:33:55;34.70;;;12.10;;
76597;SDS011;65486;53.144;18.134;2022-11-25T09:36:25;37.30;;;12.60;;
76597;SDS011;65486;53.144;18.134;2022-11-25T09:38:54;31.50;;;12.00;;
76597;SDS011;65486;53.144;18.134;2022-11-25T09:56:01;39.00;;;13.20;;
76597;SDS011;65486;53.144;18.134;2022-11-25T09:58:34;40.90;;;14.30;;
76597;SDS011;65486;53.144;18.134;2022-11-25T10:01:10;41.60;;;15.20;;
76597;SDS011;65486;53.144;18.134;2022-11-25T10:03:45;36.40;;;12.90;;
76597;SDS011;65486;53.144;18.134;2022-11-25T10:06:22;45.60;;;15.90;;
76597;SDS011;65486;53.144;18.134;2022-11-25T10:09:15;44.90;;;14.50;;
76597;SDS011;65486;53.144;18.134;2022-11-25T10:14:59;38.90;;;13.80;;
76597;SDS011;65486;53.144;18.134;2022-11-25T10:17:41;36.20;;;13.20;;
76597;SDS011;65486;53.144;18.134;2022-11-25T10:22:58;28.30;;;9.80;;
76597;SDS011;65486;53.144;18.134;2022-11-25T10:25:28;41.60;;;14.30;;
76597;SDS011;65486;53.144;18.134;2022-11-25T10:33:29;39.30;;;14.50;;
76597;SDS011;65486;53.144;18.134;2022-11-25T10:35:59;37.20;;;13.00;;
76597;SDS011;65486;53.144;18.134;2022-11-25T10:44:38;41.30;;;14.00;;
76597;SDS011;65486;53.144;18.134;2022-11-25T10:47:25;55.10;;;15.10;;
76597;SDS011;65486;53.144;18.134;2022-11-25T10:53:21;44.30;;;14.90;;
76597;SDS011;65486;53.144;18.134;2022-11-25T10:55:58;42.10;;;14.70;;
76597;SDS011;65486;53.144;18.134;2022-11-25T11:03:52;42.70;;;14.00;;
76597;SDS011;65486;53.144;18.134;2022-11-25T11:06:36;32.70;;;11.40;;
76597;SDS011;65486;53.144;18.134;2022-11-25T11:09:14;44.90;;;13.20;;
76597;SDS011;65486;53.144;18.134;2022-11-25T11:12:20;51.00;;;14.10;;
76597;SDS011;65486;53.144;18.134;2022-11-25T11:14:47;52.70;;;15.40;;
76597;SDS011;65486;53.144;18.134;2022-11-25T11:17:36;44.70;;;13.60;;
76597;SDS011;65486;53.144;18.134;2022-11-25T11:20:14;47.30;;;14.20;;
76597;SDS011;65486;53.144;18.134;2022-11-25T11:25:39;42.80;;;11.70;;
76597;SDS011;65486;53.144;18.134;2022-11-25T11:28:30;57.50;;;15.40;;
76597;SDS011;65486;53.144;18.134;2022-11-25T11:31:18;65.50;;;16.90;;
76597;SDS011;65486;53.144;18.134;2022-11-25T11:48:32;56.30;;;17.30;;
76597;SDS011;65486;53.144;18.134;2022-11-25T11:51:21;60.60;;;18.20;;
76597;SDS011;65486;53.144;18.134;2022-11-25T11:56:45;58.10;;;16.00;;
76597;SDS011;65486;53.144;18.134;2022-11-25T12:19:03;48.90;;;13.40;;
76597;SDS011;65486;53.144;18.134;2022-11-25T12:22:16;38.30;;;13.30;;
76597;SDS011;65486;53.144;18.134;2022-11-25T12:36:40;65.60;;;17.90;;
76597;SDS011;65486;53.144;18.134;2022-11-25T12:42:02;45.20;;;12.70;;
76597;SDS011;65486;53.144;18.134;2022-11-25T12:44:59;52.30;;;15.20;;
76597;SDS011;65486;53.144;18.134;2022-11-25T12:47:34;62.60;;;19.80;;
76597;SDS011;65486;53.144;18.134;2022-11-25T12:50:02;70.20;;;20.40;;
76597;SDS011;65486;53.144;18.134;2022-11-25T12:52:49;59.50;;;21.30;;
76597;SDS011;65486;53.144;18.134;2022-11-25T12:55:25;58.10;;;17.60;;
76597;SDS011;65486;53.144;18.134;2022-11-25T13:04:12;52.30;;;16.00;;
76597;SDS011;65486;53.144;18.134;2022-11-25T13:07:20;46.90;;;13.60;;
76597;SDS011;65486;53.144;18.134;2022-11-25T13:10:13;65.60;;;18.90;;
76597;SDS011;65486;53.144;18.134;2022-11-25T13:15:46;63.60;;;18.00;;
76597;SDS011;65486;53.144;18.134;2022-11-25T13:18:18;61.00;;;17.80;;
76597;SDS011;65486;53.144;18.134;2022-11-25T13:20:52;71.40;;;18.00;;
76597;SDS011;65486;53.144;18.134;2022-11-25T13:23:22;60.90;;;16.20;;
76597;SDS011;65486;53.144;18.134;2022-11-25T13:34:27;76.50;;;18.90;;
76597;SDS011;65486;53.144;18.134;2022-11-25T13:37:01;72.90;;;17.90;;
76597;SDS011;65486;53.144;18.134;2022-11-25T13:39:49;52.90;;;13.70;;
76597;SDS011;65486;53.144;18.134;2022-11-25T13:42:51;71.70;;;18.10;;
76597;SDS011;65486;53.144;18.134;2022-11-25T13:45:32;80.20;;;17.60;;
76597;SDS011;65486;53.144;18.134;2022-11-25T13:48:05;86.60;;;19.30;;
76597;SDS011;65486;53.144;18.134;2022-11-25T13:50:43;68.20;;;18.90;;
76597;SDS011;65486;53.144;18.134;2022-11-25T13:53:17;70.70;;;16.20;;
76597;SDS011;65486;53.144;18.134;2022-11-25T13:55:50;76.50;;;17.40;;
76597;SDS011;65486;53.144;18.134;2022-11-25T13:58:24;57.20;;;14.50;;
76597;SDS011;65486;53.144;18.134;2022-11-25T14:03:53;93.40;;;21.30;;
76597;SDS011;65486;53.144;18.134;2022-11-25T14:09:59;66.70;;;18.10;;
76597;SDS011;65486;53.144;18.134;2022-11-25T14:20:41;44.70;;;12.30;;
76597;SDS011;65486;53.144;18.134;2022-11-25T14:23:21;72.80;;;18.60;;
76597;SDS011;65486;53.144;18.134;2022-11-25T14:28:52;64.60;;;15.90;;
76597;SDS011;65486;53.144;18.134;2022-11-25T14:31:27;64.40;;;17.40;;
76597;SDS011;65486;53.144;18.134;2022-11-25T14:38:12;44.10;;;12.70;;
76597;SDS011;65486;53.144;18.134;2022-11-25T14:40:33;34.60;;;9.90;;
76597;SDS011;65486;53.144;18.134;2022-11-25T14:43:17;64.90;;;16.80;;
76597;SDS011;65486;53.144;18.134;2022-11-25T14:45:47;54.70;;;16.70;;
76597;SDS011;65486;53.144;18.134;2022-11-25T14:48:38;65.30;;;18.70;;
76597;SDS011;65486;53.144;18.134;2022-11-25T14:51:08;57.10;;;16.10;;
76597;SDS011;65486;53.144;18.134;2022-11-25T14:53:43;48.90;;;14.90;;
76597;SDS011;65486;53.144;18.134;2022-11-25T14:56:25;54.10;;;15.10;;
76597;SDS011;65486;53.144;18.134;2022-11-25T14:59:08;70.20;;;18.50;;
76597;SDS011;65486;53.144;18.134;2022-11-25T15:01:37;67.40;;;18.50;;
76597;SDS011;65486;53.144;18.134;2022-11-25T15:06:39;62.30;;;14.50;;
76597;SDS011;65486;53.144;18.134;2022-11-25T15:11:59;69.20;;;21.20;;
76597;SDS011;65486;53.144;18.134;2022-11-25T15:14:33;71.30;;;20.20;;
76597;SDS011;65486;53.144;18.134;2022-11-25T15:17:25;82.00;;;20.60;;
76597;SDS011;65486;53.144;18.134;2022-11-25T15:19:58;74.00;;;21.20;;
76597;SDS011;65486;53.144;18.134;2022-11-25T15:22:32;65.30;;;18.50;;
76597;SDS011;65486;53.144;18.134;2022-11-25T15:25:07;72.30;;;20.30;;
76597;SDS011;65486;53.144;18.134;2022-11-25T15:27:50;67.30;;;19.10;;
76597;SDS011;65486;53.144;18.134;2022-11-25T15:30:21;72.40;;;18.60;;
76597;SDS011;65486;53.144;18.134;2022-11-25T15:32:54;68.00;;;18.60;;
76597;SDS011;65486;53.144;18.134;2022-11-25T15:35:25;78.90;;;21.00;;
76597;SDS011;65486;53.144;18.134;2022-11-25T15:37:54;79.30;;;21.40;;
76597;SDS011;65486;53.144;18.134;2022-11-25T15:40:32;73.00;;;19.90;;
76597;SDS011;65486;53.144;18.134;2022-11-25T15:43:27;72.00;;;19.30;;
76597;SDS011;65486;53.144;18.134;2022-11-25T15:46:16;61.90;;;19.00;;
76597;SDS011;65486;53.144;18.134;2022-11-25T15:48:45;53.30;;;15.90;;
76597;SDS011;65486;53.144;18.134;2022-11-25T15:53:52;76.80;;;19.80;;
76597;SDS011;65486;53.144;18.134;2022-11-25T15:56:22;67.70;;;19.80;;
76597;SDS011;65486;53.144;18.134;2022-11-25T15:58:52;69.30;;;19.60;;
76597;SDS011;65486;53.144;18.134;2022-11-25T16:01:22;65.40;;;18.10;;
76597;SDS011;65486;53.144;18.134;2022-11-25T16:03:50;59.60;;;15.00;;
76597;SDS011;65486;53.144;18.134;2022-11-25T16:06:19;56.70;;;16.00;;
76597;SDS011;65486;53.144;18.134;2022-11-25T16:08:51;70.40;;;17.10;;
76597;SDS011;65486;53.144;18.134;2022-11-25T16:11:21;84.50;;;22.00;;
76597;SDS011;65486;53.144;18.134;2022-11-25T16:13:51;76.70;;;21.10;;
76597;SDS011;65486;53.144;18.134;2022-11-25T16:16:22;64.80;;;18.00;;
76597;SDS011;65486;53.144;18.134;2022-11-25T16:19:02;68.60;;;19.90;;
76597;SDS011;65486;53.144;18.134;2022-11-25T16:21:44;73.00;;;17.50;;
76597;SDS011;65486;53.144;18.134;2022-11-25T16:29:52;64.80;;;19.00;;
76597;SDS011;65486;53.144;18.134;2022-11-25T16:32:26;90.60;;;20.00;;
76597;SDS011;65486;53.144;18.134;2022-11-25T16:35:14;77.50;;;20.00;;
76597;SDS011;65486;53.144;18.134;2022-11-25T16:37:48;77.30;;;20.00;;
76597;SDS011;65486;53.144;18.134;2022-11-25T16:40:24;68.70;;;19.60;;
76597;SDS011;65486;53.144;18.134;2022-11-25T16:43:26;73.20;;;21.10;;
76597;SDS011;65486;53.144;18.134;2022-11-25T16:45:56;73.90;;;19.70;;
76597;SDS011;65486;53.144;18.134;2022-11-25T16:49:12;66.40;;;16.90;;
76597;SDS011;65486;53.144;18.134;2022-11-25T16:51:59;94.80;;;22.00;;
76597;SDS011;65486;53.144;18.134;2022-11-25T16:54:39;111.70;;;26.10;;
76597;SDS011;65486;53.144;18.134;2022-11-25T16:57:53;77.90;;;22.10;;
76597;SDS011;65486;53.144;18.134;2022-11-25T17:00:26;72.60;;;19.40;;
76597;SDS011;65486;53.144;18.134;2022-11-25T17:03:46;73.70;;;19.40;;
76597;SDS011;65486;53.144;18.134;2022-11-25T17:09:27;109.80;;;24.10;;
76597;SDS011;65486;53.144;18.134;2022-11-25T17:12:17;87.00;;;22.50;;
76597;SDS011;65486;53.144;18.134;2022-11-25T17:14:50;82.40;;;21.10;;
76597;SDS011;65486;53.144;18.134;2022-11-25T17:17:21;79.50;;;21.90;;